createdAt,value
2022-08-25T00:00:55.843Z,21.80
2022-08-25T00:03:42.647Z,19.42
2022-08-25T00:06:29.727Z,17.80
2022-08-25T00:09:18.070Z,17.25
2022-08-25T00:12:05.219Z,17.52
2022-08-25T00:14:50.729Z,15.18
2022-08-25T00:17:36.135Z,15.13
2022-08-25T00:20:22.394Z,19.27
2022-08-25T00:23:07.813Z,19.42
2022-08-25T00:25:53.766Z,16.60
2022-08-25T00:28:39.686Z,16.45
2022-08-25T00:31:25.089Z,20.20
2022-08-25T00:34:33.935Z,16.90
2022-08-25T00:37:19.993Z,14.88
2022-08-25T00:40:06.715Z,14.93
2022-08-25T00:42:51.971Z,16.52
2022-08-25T00:45:37.521Z,16.13
2022-08-25T00:48:22.962Z,16.52
2022-08-25T00:51:11.601Z,16.10
2022-08-25T00:53:57.150Z,16.92
2022-08-25T00:56:43.769Z,17.42
2022-08-25T00:59:30.024Z,14.98
2022-08-25T01:02:15.466Z,18.88
2022-08-25T01:05:00.728Z,17.23
2022-08-25T01:07:46.675Z,15.32
2022-08-25T01:10:33.255Z,18.13
2022-08-25T01:13:33.702Z,17.98
2022-08-25T01:16:18.904Z,19.73
2022-08-25T01:19:07.272Z,14.15
2022-08-25T01:21:53.985Z,16.33
2022-08-25T01:24:59.406Z,19.30
2022-08-25T01:27:44.897Z,19.00
2022-08-25T01:30:30.348Z,15.52
2022-08-25T01:33:19.192Z,16.75
2022-08-25T01:36:05.428Z,17.95
2022-08-25T01:38:51.236Z,15.77
2022-08-25T01:42:06.979Z,20.17
2022-08-25T01:44:52.207Z,16.33
2022-08-25T01:47:37.882Z,16.73
2022-08-25T01:50:23.352Z,15.38
2022-08-25T01:53:19.658Z,15.82
2022-08-25T01:56:12.729Z,14.98
2022-08-25T01:58:57.805Z,17.77
2022-08-25T02:01:43.336Z,14.68
2022-08-25T02:04:32.250Z,14.88
2022-08-25T02:07:18.032Z,14.80
2022-08-25T02:10:05.632Z,14.65
2022-08-25T02:12:51.017Z,17.30
2022-08-25T02:15:44.463Z,17.30
2022-08-25T02:18:30.283Z,16.50
2022-08-25T02:21:15.750Z,17.10
2022-08-25T02:24:01.559Z,15.43
2022-08-25T02:26:46.903Z,18.52
2022-08-25T02:29:33.819Z,19.23
2022-08-25T02:32:19.350Z,17.05
2022-08-25T02:35:06.149Z,20.65
2022-08-25T02:37:53.515Z,19.30
2022-08-25T02:40:39.847Z,19.88
2022-08-25T02:43:26.701Z,18.02
2022-08-25T02:46:12.807Z,17.20
2022-08-25T02:48:57.920Z,21.40
2022-08-25T02:51:43.291Z,18.35
2022-08-25T02:54:28.727Z,17.15
2022-08-25T02:57:15.768Z,18.48
2022-08-25T03:00:00.890Z,17.88
2022-08-25T03:02:47.333Z,17.60
2022-08-25T03:05:33.664Z,17.95
2022-08-25T03:08:18.908Z,17.80
2022-08-25T03:11:05.397Z,17.98
2022-08-25T03:13:51.162Z,19.33
2022-08-25T03:16:36.627Z,21.52
2022-08-25T03:19:22.246Z,17.65
2022-08-25T03:22:07.442Z,18.27
2022-08-25T03:25:12.914Z,19.15
2022-08-25T03:27:58.179Z,22.02
2022-08-25T03:30:44.448Z,20.70
2022-08-25T03:33:30.504Z,20.63
2022-08-25T03:36:15.945Z,17.83
2022-08-25T03:39:01.229Z,18.73
2022-08-25T03:41:47.268Z,25.13
2022-08-25T03:44:33.525Z,18.80
2022-08-25T03:47:18.971Z,19.20
2022-08-25T03:50:06.289Z,19.23
2022-08-25T03:52:54.845Z,17.88
2022-08-25T03:55:40.976Z,21.17
2022-08-25T03:58:26.186Z,17.00
2022-08-25T04:01:11.918Z,17.67
2022-08-25T04:03:57.390Z,16.33
2022-08-25T04:06:44.173Z,17.83
2022-08-25T04:09:30.832Z,19.70
2022-08-25T04:12:17.553Z,18.58
2022-08-25T04:15:05.949Z,18.02
2022-08-25T04:17:51.980Z,18.85
2022-08-25T04:20:45.929Z,16.45
2022-08-25T04:23:32.381Z,18.75
2022-08-25T04:26:21.372Z,20.67
2022-08-25T04:29:09.877Z,16.55
2022-08-25T04:31:55.405Z,17.70
2022-08-25T04:34:41.824Z,21.15
2022-08-25T04:37:26.924Z,18.58
2022-08-25T04:40:12.565Z,22.00
2022-08-25T04:42:58.196Z,18.40
2022-08-25T04:45:43.551Z,17.63
2022-08-25T04:48:28.972Z,21.60
2022-08-25T04:51:17.295Z,20.05
2022-08-25T04:54:05.422Z,21.50
2022-08-25T04:56:54.323Z,24.58
2022-08-25T04:59:43.516Z,24.60
2022-08-25T05:02:29.008Z,18.60
2022-08-25T05:05:14.338Z,18.40
2022-08-25T05:07:59.948Z,18.27
2022-08-25T05:10:45.131Z,18.25
2022-08-25T05:13:30.932Z,20.38
2022-08-25T05:16:17.381Z,22.73
2022-08-25T05:19:02.689Z,24.00
2022-08-25T05:21:48.063Z,21.17
2022-08-25T05:24:33.308Z,21.17
2022-08-25T05:27:18.647Z,20.40
2022-08-25T05:30:04.499Z,23.65
2022-08-25T05:32:50.097Z,22.13
2022-08-25T05:35:36.172Z,24.83
2022-08-25T05:38:22.250Z,20.55
2022-08-25T05:41:15.376Z,24.90
2022-08-25T05:44:00.559Z,23.20
2022-08-25T05:46:47.187Z,24.23
2022-08-25T05:49:32.487Z,24.98
2022-08-25T05:52:20.167Z,21.75
2022-08-25T05:55:06.748Z,23.38
2022-08-25T05:57:51.740Z,26.70
2022-08-25T06:00:38.204Z,28.33
2022-08-25T06:03:23.599Z,24.63
2022-08-25T06:06:09.267Z,22.05
2022-08-25T06:08:54.673Z,22.60
2022-08-25T06:11:40.901Z,24.85
2022-08-25T06:14:27.377Z,25.92
2022-08-25T06:17:12.771Z,21.63
2022-08-25T06:19:58.084Z,24.48
2022-08-25T06:22:43.877Z,21.92
2022-08-25T06:25:32.611Z,24.25
2022-08-25T06:28:18.189Z,25.98
2022-08-25T06:31:04.014Z,29.00
2022-08-25T06:33:50.814Z,24.77
2022-08-25T06:36:36.112Z,25.65
2022-08-25T06:39:22.312Z,25.33
2022-08-25T06:42:07.463Z,28.00
2022-08-25T06:44:52.845Z,27.48
2022-08-25T06:47:38.234Z,25.90
2022-08-25T06:50:23.956Z,25.20
2022-08-25T06:53:09.407Z,26.60
2022-08-25T06:55:58.018Z,24.83
2022-08-25T06:58:43.250Z,23.80
2022-08-25T07:01:28.530Z,30.27
2022-08-25T07:04:17.340Z,26.00
2022-08-25T07:07:04.093Z,22.52
2022-08-25T07:09:49.245Z,24.25
2022-08-25T07:12:34.632Z,25.33
2022-08-25T07:15:21.012Z,24.88
2022-08-25T07:18:07.490Z,23.77
2022-08-25T07:20:53.872Z,26.25
2022-08-25T07:23:40.242Z,21.85
2022-08-25T07:26:43.678Z,22.08
2022-08-25T07:32:35.389Z,21.42
2022-08-25T07:35:23.979Z,22.35
2022-08-25T07:38:10.194Z,22.02
2022-08-25T07:41:02.613Z,19.92
2022-08-25T07:43:47.956Z,20.50
2022-08-25T07:46:35.228Z,20.40
2022-08-25T07:49:23.246Z,19.48
2022-08-25T07:52:09.257Z,20.42
2022-08-25T07:54:55.145Z,20.98
2022-08-25T07:57:41.105Z,21.70
2022-08-25T08:00:29.849Z,22.05
2022-08-25T08:03:35.316Z,21.40
2022-08-25T08:06:24.074Z,19.67
2022-08-25T08:09:09.461Z,21.30
2022-08-25T08:11:54.644Z,22.42
2022-08-25T08:14:45.091Z,16.88
2022-08-25T08:17:31.936Z,15.77
2022-08-25T08:20:17.739Z,20.48
2022-08-25T08:23:08.878Z,16.38
2022-08-25T08:25:54.275Z,19.20
2022-08-25T08:28:39.767Z,17.45
2022-08-25T08:31:28.338Z,18.55
2022-08-25T08:34:13.885Z,18.58
2022-08-25T08:37:00.277Z,15.38
2022-08-25T08:39:45.722Z,16.02
2022-08-25T08:42:46.986Z,16.45
2022-08-25T08:45:50.915Z,14.60
2022-08-25T08:48:40.980Z,13.13
2022-08-25T08:51:38.493Z,14.70
2022-08-25T08:54:28.770Z,12.85
2022-08-25T08:57:23.024Z,15.05
2022-08-25T09:00:09.352Z,12.20
2022-08-25T09:03:06.908Z,13.60
2022-08-25T09:05:56.287Z,11.95
2022-08-25T09:08:44.857Z,17.05
2022-08-25T09:12:09.041Z,13.13
2022-08-25T09:16:01.416Z,13.90
2022-08-25T09:18:58.109Z,14.40
2022-08-25T09:21:57.088Z,12.35
2022-08-25T09:24:52.315Z,9.45
2022-08-25T09:27:48.271Z,10.77
2022-08-25T09:30:49.009Z,11.50
2022-08-25T09:33:35.587Z,12.60
2022-08-25T09:36:21.160Z,10.73
2022-08-25T09:39:07.669Z,8.75
2022-08-25T09:42:00.261Z,10.70
2022-08-25T09:44:48.437Z,10.77
2022-08-25T09:47:44.297Z,10.27
2022-08-25T09:50:35.050Z,9.75
2022-08-25T09:53:21.710Z,8.18
2022-08-25T09:56:10.378Z,10.25
2022-08-25T09:59:21.284Z,10.38
2022-08-25T10:02:26.355Z,9.00
2022-08-25T10:05:21.001Z,11.68
2022-08-25T10:08:24.694Z,10.15
2022-08-25T10:11:28.971Z,14.07
2022-08-25T10:14:36.232Z,9.85
2022-08-25T10:17:31.679Z,12.60
2022-08-25T10:20:25.734Z,11.98
2022-08-25T10:23:15.045Z,8.20
2022-08-25T10:26:06.093Z,9.75
2022-08-25T10:29:25.897Z,10.63
2022-08-25T10:32:22.460Z,11.32
2022-08-25T10:35:20.301Z,9.48
2022-08-25T10:38:14.519Z,8.80
2022-08-25T10:41:58.888Z,11.30
2022-08-25T10:45:43.168Z,8.05
2022-08-25T10:48:50.123Z,7.40
2022-08-25T10:52:12.062Z,8.50
2022-08-25T10:55:11.869Z,8.93
2022-08-25T10:58:34.156Z,8.93
2022-08-25T11:01:36.663Z,7.55
2022-08-25T11:04:37.798Z,11.43
2022-08-25T11:07:34.456Z,10.13
2022-08-25T11:10:25.950Z,11.45
2022-08-25T11:13:31.633Z,10.93
2022-08-25T11:16:41.707Z,8.55
2022-08-25T11:19:38.843Z,8.98
2022-08-25T11:22:39.694Z,8.13
2022-08-25T11:25:38.250Z,7.47
2022-08-25T11:28:35.753Z,7.97
2022-08-25T11:31:23.092Z,10.15
2022-08-25T11:34:16.348Z,7.63
2022-08-25T11:37:22.942Z,7.90
2022-08-25T11:40:27.910Z,11.77
2022-08-25T11:43:52.513Z,11.70
2022-08-25T11:47:02.970Z,9.45
2022-08-25T11:50:04.560Z,12.35
2022-08-25T11:52:56.677Z,10.77
2022-08-25T11:55:53.921Z,10.25
2022-08-25T11:58:41.655Z,8.93
2022-08-25T12:01:43.113Z,9.70
2022-08-25T12:04:45.036Z,8.90
2022-08-25T12:08:13.495Z,7.35
2022-08-25T12:11:11.220Z,7.60
2022-08-25T12:14:40.886Z,9.60
2022-08-25T12:17:37.115Z,9.27
2022-08-25T12:20:53.580Z,9.50
2022-08-25T12:23:44.831Z,8.73
2022-08-25T12:29:34.631Z,9.95
2022-08-25T12:32:41.068Z,9.32
2022-08-25T12:35:31.007Z,17.98
2022-08-25T12:38:49.571Z,9.60
2022-08-25T12:41:55.415Z,10.82
2022-08-25T12:44:48.605Z,10.57
2022-08-25T12:47:35.375Z,10.65
2022-08-25T12:50:38.856Z,9.65
2022-08-25T12:53:35.305Z,8.88
2022-08-25T12:56:27.388Z,7.32
2022-08-25T12:59:21.894Z,8.25
2022-08-25T13:02:39.775Z,8.32
2022-08-25T13:05:47.941Z,13.90
2022-08-25T13:09:00.475Z,15.88
2022-08-25T13:12:02.494Z,12.10
2022-08-25T13:14:54.373Z,11.70
2022-08-25T13:17:39.434Z,12.73
2022-08-25T13:20:29.093Z,14.10
2022-08-25T13:23:19.504Z,18.90
2022-08-25T13:26:06.474Z,15.55
2022-08-25T13:29:00.503Z,13.13
2022-08-25T13:32:09.355Z,14.10
2022-08-25T13:35:19.668Z,14.05
2022-08-25T13:38:16.575Z,18.23
2022-08-25T13:41:09.223Z,14.57
2022-08-25T13:43:55.905Z,15.85
2022-08-25T13:46:47.401Z,16.45
2022-08-25T13:49:32.593Z,15.07
2022-08-25T13:52:29.286Z,16.02
2022-08-25T13:55:27.471Z,20.88
2022-08-25T13:58:17.220Z,15.27
2022-08-25T14:01:22.927Z,17.48
2022-08-25T14:04:40.035Z,27.00
2022-08-25T14:07:38.328Z,16.45
2022-08-25T14:10:45.216Z,13.23
2022-08-25T14:13:32.560Z,11.95
2022-08-25T14:16:25.500Z,14.73
2022-08-25T14:19:19.832Z,10.52
2022-08-25T14:22:05.916Z,14.88
2022-08-25T14:24:52.978Z,13.27
2022-08-25T14:28:03.595Z,10.65
2022-08-25T14:30:58.433Z,11.57
2022-08-25T14:33:53.855Z,13.77
2022-08-25T14:36:38.946Z,15.73
2022-08-25T14:39:24.393Z,13.05
2022-08-25T14:42:10.060Z,12.80
2022-08-25T14:44:56.269Z,11.40
2022-08-25T14:47:42.483Z,11.02
2022-08-25T14:50:27.561Z,11.38
2022-08-25T14:53:13.155Z,11.95
2022-08-25T14:55:59.073Z,10.40
2022-08-25T14:58:50.985Z,10.38
2022-08-25T15:01:39.806Z,13.93
2022-08-25T15:04:28.260Z,11.88
2022-08-25T15:07:32.225Z,18.92
2022-08-25T15:10:18.432Z,13.32
2022-08-25T15:13:07.264Z,11.32
2022-08-25T15:15:53.247Z,12.38
2022-08-25T15:18:38.713Z,14.88
2022-08-25T15:21:23.869Z,12.32
2022-08-25T15:24:10.928Z,11.52
2022-08-25T15:26:59.836Z,19.13
2022-08-25T15:29:46.715Z,11.20
2022-08-25T15:32:32.425Z,15.07
2022-08-25T15:35:17.496Z,13.43
2022-08-25T15:38:02.828Z,21.38
2022-08-25T15:40:50.343Z,18.23
2022-08-25T15:43:35.943Z,9.32
2022-08-25T15:46:23.885Z,11.07
2022-08-25T15:49:09.495Z,14.52
2022-08-25T15:51:56.487Z,14.02
2022-08-25T15:54:43.223Z,18.45
2022-08-25T15:57:30.761Z,14.82
2022-08-25T16:00:17.010Z,12.10
2022-08-25T16:03:03.172Z,10.85
2022-08-25T16:05:48.975Z,11.50
2022-08-25T16:08:35.280Z,13.32
2022-08-25T16:11:27.603Z,15.75
2022-08-25T16:16:59.801Z,19.50
2022-08-25T16:19:45.915Z,18.90
2022-08-25T16:22:31.236Z,13.95
2022-08-25T16:25:17.043Z,18.08
2022-08-25T16:28:03.029Z,15.13
2022-08-25T16:30:52.704Z,18.70
2022-08-25T16:33:39.670Z,21.63
2022-08-25T16:36:27.018Z,14.32
2022-08-25T16:39:12.722Z,15.07
2022-08-25T16:41:58.709Z,18.75
2022-08-25T16:44:44.776Z,16.13
2022-08-25T16:47:29.969Z,15.02
2022-08-25T16:50:16.110Z,17.65
2022-08-25T16:53:19.942Z,17.38
2022-08-25T16:56:11.545Z,22.25
2022-08-25T16:58:59.389Z,20.90
2022-08-25T17:01:44.989Z,18.48
2022-08-25T17:04:32.185Z,20.02
2022-08-25T17:07:23.736Z,17.23
2022-08-25T17:10:12.672Z,21.20
2022-08-25T17:12:58.531Z,13.75
2022-08-25T17:15:46.677Z,20.40
2022-08-25T17:18:32.953Z,17.58
2022-08-25T17:21:25.027Z,21.30
2022-08-25T17:24:11.175Z,18.27
2022-08-25T17:26:56.602Z,25.58
2022-08-25T17:29:43.397Z,13.98
2022-08-25T17:32:30.636Z,16.58
2022-08-25T17:35:15.850Z,13.05
2022-08-25T17:38:01.285Z,22.92
2022-08-25T17:40:48.033Z,15.13
2022-08-25T17:43:40.976Z,17.52
2022-08-25T17:46:26.769Z,16.13
2022-08-25T17:49:12.342Z,14.98
2022-08-25T17:51:58.112Z,13.82
2022-08-25T17:54:43.455Z,14.25
2022-08-25T17:57:28.867Z,13.57
2022-08-25T18:00:15.795Z,18.38
2022-08-25T18:03:03.988Z,16.58
2022-08-25T18:05:50.264Z,14.38
2022-08-25T18:08:36.065Z,11.57
2022-08-25T18:11:24.546Z,11.43
2022-08-25T18:14:11.344Z,8.82
2022-08-25T18:16:57.021Z,9.45
2022-08-25T18:19:42.560Z,12.63
2022-08-25T18:22:27.994Z,9.90
2022-08-25T18:25:15.342Z,10.35
2022-08-25T18:28:02.281Z,15.10
2022-08-25T18:30:48.151Z,20.35
2022-08-25T18:33:34.991Z,14.40
2022-08-25T18:36:21.099Z,15.18
2022-08-25T18:39:25.902Z,12.05
2022-08-25T18:42:11.100Z,22.08
2022-08-25T18:44:57.040Z,17.08
2022-08-25T18:47:42.571Z,15.75
2022-08-25T18:50:31.118Z,10.32
2022-08-25T18:53:17.637Z,12.55
2022-08-25T18:56:03.317Z,14.52
2022-08-25T18:58:48.799Z,15.43
2022-08-25T19:01:37.721Z,14.90
2022-08-25T19:04:28.520Z,12.95
2022-08-25T19:07:17.191Z,14.38
2022-08-25T19:10:02.485Z,17.17
2022-08-25T19:12:48.020Z,17.60
2022-08-25T19:15:37.529Z,19.88
2022-08-25T19:18:25.895Z,19.90
2022-08-25T19:21:14.169Z,17.53
2022-08-25T19:23:59.685Z,15.98
2022-08-25T19:26:45.678Z,14.48
2022-08-25T19:29:31.557Z,29.75
2022-08-25T19:32:18.262Z,16.65
2022-08-25T19:35:07.945Z,14.73
2022-08-25T19:37:53.973Z,18.65
2022-08-25T19:40:39.318Z,17.38
2022-08-25T19:43:24.521Z,20.23
2022-08-25T19:46:10.174Z,31.85
2022-08-25T19:48:55.602Z,18.85
2022-08-25T19:51:44.639Z,17.63
2022-08-25T19:54:33.302Z,24.45
2022-08-25T19:57:28.395Z,23.38
2022-08-25T20:00:32.524Z,16.80
2022-08-25T20:03:20.470Z,17.73
2022-08-25T20:06:06.727Z,23.50
2022-08-25T20:08:58.850Z,17.35
2022-08-25T20:11:46.007Z,23.38
2022-08-25T20:14:33.780Z,18.92
2022-08-25T20:17:24.342Z,18.38
2022-08-25T20:20:16.213Z,20.58
2022-08-25T20:23:20.138Z,22.65
2022-08-25T20:26:05.436Z,20.98
2022-08-25T20:28:50.946Z,16.67
2022-08-25T20:31:36.543Z,20.30
2022-08-25T20:34:21.965Z,16.50
2022-08-25T20:37:07.985Z,18.75
2022-08-25T20:39:53.700Z,16.27
2022-08-25T20:42:40.617Z,14.82
2022-08-25T20:45:25.950Z,17.40
2022-08-25T20:48:11.176Z,15.90
2022-08-25T20:50:57.684Z,11.82
2022-08-25T20:53:44.003Z,18.17
2022-08-25T20:56:32.333Z,31.92
2022-08-25T20:59:18.108Z,18.63
2022-08-25T21:02:05.120Z,13.82
2022-08-25T21:04:51.118Z,17.42
2022-08-25T21:07:36.475Z,21.48
2022-08-25T21:10:21.973Z,21.85
2022-08-25T21:13:07.458Z,19.02
2022-08-25T21:15:52.834Z,25.73
2022-08-25T21:18:38.181Z,21.77
2022-08-25T21:21:23.912Z,21.58
2022-08-25T21:24:11.733Z,23.75
2022-08-25T21:26:59.577Z,20.10
2022-08-25T21:29:55.078Z,15.15
2022-08-25T21:32:40.425Z,21.48
2022-08-25T21:35:40.672Z,18.40
2022-08-25T21:38:29.031Z,22.65
2022-08-25T21:41:19.505Z,25.33
2022-08-25T21:44:05.359Z,16.67
2022-08-25T21:46:54.149Z,20.45
2022-08-25T21:49:40.098Z,21.10
2022-08-25T21:52:25.591Z,25.40
2022-08-25T21:55:16.146Z,21.52
2022-08-25T21:58:01.915Z,21.40
2022-08-25T22:00:47.324Z,23.40
2022-08-25T22:03:33.553Z,18.52
2022-08-25T22:06:23.077Z,18.77
2022-08-25T22:09:10.785Z,17.13
2022-08-25T22:11:56.555Z,21.70
2022-08-25T22:14:42.043Z,22.42
2022-08-25T22:17:28.246Z,21.00
2022-08-25T22:20:15.656Z,21.23
2022-08-25T22:23:01.047Z,29.08
2022-08-25T22:25:46.475Z,20.75
2022-08-25T22:28:31.841Z,19.33
2022-08-25T22:31:20.656Z,19.73
2022-08-25T22:34:06.793Z,19.60
2022-08-25T22:36:52.299Z,22.33
2022-08-25T22:39:46.306Z,20.33
2022-08-25T22:42:31.889Z,18.73
2022-08-25T22:45:17.495Z,20.20
2022-08-25T22:48:04.931Z,22.08
2022-08-25T22:50:50.133Z,19.55
2022-08-25T22:53:37.189Z,25.40
2022-08-25T22:56:31.853Z,20.98
2022-08-25T22:59:17.029Z,19.45
2022-08-25T23:02:03.660Z,18.38
2022-08-25T23:04:49.028Z,20.77
2022-08-25T23:07:36.881Z,24.15
2022-08-25T23:10:25.475Z,17.88
2022-08-25T23:13:11.144Z,23.17
2022-08-25T23:16:05.740Z,20.75
2022-08-25T23:18:51.866Z,27.85
2022-08-25T23:21:56.813Z,16.55
2022-08-25T23:24:44.623Z,24.00
2022-08-25T23:27:30.017Z,23.30
2022-08-25T23:30:15.669Z,19.50
2022-08-25T23:33:01.365Z,19.65
2022-08-25T23:35:46.733Z,18.63
2022-08-25T23:38:32.503Z,17.05
2022-08-25T23:41:20.359Z,22.75
2022-08-25T23:44:05.981Z,23.25
2022-08-25T23:46:51.453Z,20.20
2022-08-25T23:49:37.902Z,19.17
2022-08-25T23:52:23.860Z,20.00
2022-08-25T23:55:09.985Z,14.07
2022-08-25T23:57:56.103Z,21.23
